createdAt,value
2022-12-11T00:02:10.028Z,11.60
2022-12-11T00:04:43.968Z,11.50
2022-12-11T00:07:17.892Z,11.60
2022-12-11T00:09:52.256Z,11.60
2022-12-11T00:12:28.139Z,11.50
2022-12-11T00:15:02.313Z,11.50
2022-12-11T00:17:36.128Z,11.60
2022-12-11T00:20:11.951Z,11.60
2022-12-11T00:22:46.424Z,11.60
2022-12-11T00:25:21.231Z,11.60
2022-12-11T00:27:57.333Z,11.50
2022-12-11T00:30:31.945Z,11.60
2022-12-11T00:33:06.207Z,11.60
2022-12-11T00:35:42.531Z,11.70
2022-12-11T00:38:20.269Z,11.70
2022-12-11T00:40:55.108Z,11.70
2022-12-11T00:43:31.079Z,11.60
2022-12-11T00:46:05.630Z,11.60
2022-12-11T00:48:40.160Z,11.70
2022-12-11T00:51:14.560Z,11.70
2022-12-11T00:53:48.360Z,11.60
2022-12-11T00:56:23.995Z,11.70
2022-12-11T00:58:59.674Z,11.70
2022-12-11T01:01:33.606Z,11.70
2022-12-11T01:04:07.777Z,11.80
2022-12-11T01:06:42.532Z,11.70
2022-12-11T01:09:32.541Z,11.60
2022-12-11T01:12:06.498Z,11.60
2022-12-11T01:14:42.689Z,11.60
2022-12-11T01:17:16.665Z,11.70
2022-12-11T01:19:51.173Z,11.70
2022-12-11T01:22:25.973Z,11.70
2022-12-11T01:25:10.445Z,11.70
2022-12-11T01:27:47.000Z,11.70
2022-12-11T01:30:24.479Z,11.70
2022-12-11T01:32:59.074Z,11.80
2022-12-11T01:35:33.824Z,11.80
2022-12-11T01:38:08.531Z,11.80
2022-12-11T01:40:42.758Z,11.80
2022-12-11T01:43:17.482Z,11.80
2022-12-11T01:45:54.878Z,11.80
2022-12-11T01:48:31.540Z,11.80
2022-12-11T01:51:09.446Z,11.80
2022-12-11T01:53:47.569Z,11.90
2022-12-11T01:56:22.206Z,11.90
2022-12-11T01:59:01.976Z,11.80
2022-12-11T02:01:41.783Z,11.80
2022-12-11T02:04:17.946Z,11.80
2022-12-11T02:06:53.668Z,11.90
2022-12-11T02:09:31.130Z,11.80
2022-12-11T02:12:10.744Z,11.80
2022-12-11T02:14:49.331Z,11.70
2022-12-11T02:17:30.412Z,11.70
2022-12-11T02:20:11.080Z,11.90
2022-12-11T02:23:07.378Z,12.10
2022-12-11T02:25:47.919Z,12.00
2022-12-11T02:28:30.156Z,12.00
2022-12-11T02:31:09.402Z,12.00
2022-12-11T02:33:49.775Z,12.00
2022-12-11T02:36:27.883Z,11.90
2022-12-11T02:39:03.219Z,12.10
2022-12-11T02:41:38.786Z,12.20
2022-12-11T02:44:19.710Z,12.20
2022-12-11T02:46:56.258Z,12.30
2022-12-11T02:49:35.384Z,12.30
2022-12-11T02:52:12.345Z,12.10
2022-12-11T02:54:49.261Z,12.10
2022-12-11T02:57:28.288Z,12.20
2022-12-11T03:00:05.821Z,12.30
2022-12-11T03:02:43.566Z,12.30
2022-12-11T03:05:20.770Z,12.40
2022-12-11T03:07:55.910Z,12.40
2022-12-11T03:10:30.076Z,12.50
2022-12-11T03:13:05.866Z,12.40
2022-12-11T03:16:24.066Z,12.40
2022-12-11T03:19:35.108Z,12.40
2022-12-11T03:22:16.982Z,12.50
2022-12-11T03:24:55.457Z,12.50
2022-12-11T03:27:34.403Z,12.70
2022-12-11T03:30:11.852Z,12.70
2022-12-11T03:33:15.059Z,12.80
2022-12-11T03:36:36.511Z,12.70
2022-12-11T03:39:32.492Z,12.70
2022-12-11T03:42:41.310Z,12.90
2022-12-11T03:45:23.571Z,12.80
2022-12-11T03:48:05.699Z,12.70
2022-12-11T03:50:41.005Z,12.70
2022-12-11T03:53:16.512Z,12.90
2022-12-11T03:55:57.010Z,12.90
2022-12-11T03:58:32.126Z,12.90
2022-12-11T04:01:09.342Z,12.90
2022-12-11T04:03:50.393Z,12.80
2022-12-11T04:06:29.268Z,12.90
2022-12-11T04:09:06.791Z,12.80
2022-12-11T04:11:44.708Z,12.90
2022-12-11T04:14:51.997Z,13.00
2022-12-11T04:17:44.562Z,13.00
2022-12-11T04:20:38.623Z,12.90
2022-12-11T04:23:35.938Z,13.00
2022-12-11T04:26:14.100Z,13.10
2022-12-11T04:28:51.616Z,13.10
2022-12-11T04:31:31.897Z,13.30
2022-12-11T04:34:08.431Z,13.20
2022-12-11T04:36:47.204Z,13.30
2022-12-11T04:39:47.159Z,13.10
2022-12-11T04:51:24.768Z,13.20
2022-12-11T04:55:29.278Z,13.20
2022-12-11T04:58:59.017Z,13.20
2022-12-11T05:02:38.790Z,13.20
2022-12-11T05:05:22.993Z,13.40
2022-12-11T05:12:05.165Z,13.30
2022-12-11T05:15:46.544Z,13.30
2022-12-11T05:18:22.933Z,13.20
2022-12-11T05:21:04.160Z,13.40
2022-12-11T05:23:39.992Z,13.50
2022-12-11T05:26:19.741Z,13.20
2022-12-11T05:28:57.776Z,13.30
2022-12-11T05:31:36.748Z,12.90
2022-12-11T05:34:12.473Z,13.00
2022-12-11T05:36:49.179Z,13.00
2022-12-11T05:39:25.060Z,13.00
2022-12-11T05:42:01.924Z,13.10
2022-12-11T05:44:37.989Z,13.10
2022-12-11T05:47:15.473Z,13.20
2022-12-11T05:49:53.114Z,13.30
2022-12-11T05:52:29.510Z,13.00
2022-12-11T05:55:07.468Z,13.00
2022-12-11T05:57:45.039Z,12.90
2022-12-11T06:00:20.759Z,12.90
2022-12-11T06:02:58.080Z,13.00
2022-12-11T06:05:33.777Z,13.00
2022-12-11T06:08:09.557Z,13.00
2022-12-11T06:10:52.212Z,12.90
2022-12-11T06:13:28.507Z,12.90
2022-12-11T06:16:11.969Z,12.90
2022-12-11T06:18:55.856Z,12.80
2022-12-11T06:22:24.985Z,12.90
2022-12-11T06:25:10.114Z,12.60
2022-12-11T06:27:47.843Z,12.60
2022-12-11T06:30:38.962Z,12.60
2022-12-11T06:33:15.248Z,12.60
2022-12-11T06:35:54.929Z,12.60
2022-12-11T06:38:31.256Z,12.60
2022-12-11T06:41:13.610Z,12.40
2022-12-11T06:44:40.459Z,12.50
2022-12-11T06:47:48.047Z,12.40
2022-12-11T06:50:29.980Z,12.10
2022-12-11T06:53:09.379Z,12.00
2022-12-11T06:55:46.790Z,12.00
2022-12-11T06:58:23.138Z,11.90
2022-12-11T07:01:00.310Z,11.90
2022-12-11T07:03:36.865Z,11.90
2022-12-11T07:06:12.493Z,11.90
2022-12-11T07:08:50.952Z,11.90
2022-12-11T07:11:28.754Z,11.80
2022-12-11T07:14:06.243Z,11.90
2022-12-11T07:16:42.739Z,11.70
2022-12-11T07:19:18.148Z,11.70
2022-12-11T07:21:54.990Z,11.60
2022-12-11T07:24:35.555Z,11.70
2022-12-11T07:27:14.136Z,11.50
2022-12-11T07:29:51.737Z,11.40
2022-12-11T07:32:27.417Z,11.20
2022-12-11T07:35:03.326Z,11.30
2022-12-11T07:37:43.986Z,11.40
2022-12-11T07:40:22.228Z,11.40
2022-12-11T07:42:59.137Z,11.50
2022-12-11T07:45:36.306Z,11.20
2022-12-11T07:48:12.585Z,11.10
2022-12-11T07:50:48.698Z,11.00
2022-12-11T07:53:25.770Z,11.10
2022-12-11T07:56:06.466Z,10.90
2022-12-11T07:58:43.086Z,10.90
2022-12-11T08:01:21.412Z,10.90
2022-12-11T08:04:00.437Z,10.80
2022-12-11T08:06:38.149Z,10.90
2022-12-11T08:09:20.974Z,10.80
2022-12-11T08:11:59.437Z,10.60
2022-12-11T08:14:37.794Z,10.80
2022-12-11T08:17:16.311Z,10.70
2022-12-11T08:19:53.822Z,10.50
2022-12-11T08:22:29.666Z,10.70
2022-12-11T08:25:05.837Z,10.70
2022-12-11T08:27:44.199Z,10.80
2022-12-11T08:30:22.411Z,10.60
2022-12-11T08:32:58.795Z,10.50
2022-12-11T08:35:36.200Z,10.50
2022-12-11T08:38:12.396Z,10.50
2022-12-11T08:40:49.832Z,10.40
2022-12-11T08:43:28.015Z,10.60
2022-12-11T08:46:03.844Z,10.60
2022-12-11T08:48:39.463Z,10.50
2022-12-11T08:51:19.801Z,10.50
2022-12-11T08:54:09.181Z,10.50
2022-12-11T08:56:45.287Z,10.40
2022-12-11T08:59:23.832Z,10.50
2022-12-11T09:02:00.961Z,10.30
2022-12-11T09:04:37.436Z,10.10
2022-12-11T09:07:14.679Z,10.10
2022-12-11T09:09:51.260Z,10.30
2022-12-11T09:12:29.064Z,10.20
2022-12-11T09:15:07.917Z,10.30
2022-12-11T09:17:43.501Z,10.30
2022-12-11T09:20:19.408Z,10.30
2022-12-11T09:22:56.279Z,10.20
2022-12-11T09:25:32.443Z,10.30
2022-12-11T09:28:10.632Z,10.30
2022-12-11T09:30:49.105Z,10.30
2022-12-11T09:33:25.193Z,10.20
2022-12-11T09:36:07.329Z,10.20
2022-12-11T09:38:45.703Z,10.00
2022-12-11T09:41:43.185Z,10.00
2022-12-11T09:44:39.259Z,9.90
2022-12-11T09:47:31.158Z,9.90
2022-12-11T09:50:17.272Z,10.00
2022-12-11T09:53:13.368Z,9.90
2022-12-11T09:55:56.393Z,9.90
2022-12-11T09:58:38.640Z,9.80
2022-12-11T10:01:54.874Z,9.70
2022-12-11T10:05:24.644Z,9.80
2022-12-11T10:08:35.708Z,9.80
2022-12-11T10:11:26.991Z,9.80
2022-12-11T10:14:38.745Z,9.60
2022-12-11T10:17:22.060Z,9.80
2022-12-11T10:19:58.861Z,9.60
2022-12-11T10:22:38.254Z,9.50
2022-12-11T10:25:20.815Z,9.60
2022-12-11T10:27:57.573Z,9.60
2022-12-11T10:31:40.053Z,9.60
2022-12-11T10:34:37.632Z,9.70
2022-12-11T10:37:18.626Z,9.30
2022-12-11T10:39:57.468Z,9.30
2022-12-11T10:42:35.366Z,9.40
2022-12-11T10:45:12.452Z,9.50
2022-12-11T10:47:48.810Z,9.40
2022-12-11T10:50:34.082Z,9.40
2022-12-11T10:53:10.455Z,9.30
2022-12-11T10:55:54.660Z,9.20
2022-12-11T10:58:35.824Z,9.20
2022-12-11T11:01:16.842Z,9.10
2022-12-11T11:04:03.179Z,9.10
2022-12-11T11:06:40.288Z,9.20
2022-12-11T11:09:38.348Z,9.20
2022-12-11T11:12:32.015Z,8.90
2022-12-11T11:15:11.916Z,9.00
2022-12-11T11:18:30.158Z,9.00
2022-12-11T11:21:08.986Z,9.00
2022-12-11T11:23:53.299Z,9.00
2022-12-11T11:26:56.714Z,8.90
2022-12-11T11:29:37.501Z,8.90
2022-12-11T11:32:24.405Z,8.90
2022-12-11T11:35:12.045Z,9.00
2022-12-11T11:37:55.489Z,9.00
2022-12-11T11:40:42.091Z,9.00
2022-12-11T11:43:31.135Z,8.90
2022-12-11T11:46:16.691Z,9.10
2022-12-11T11:49:05.507Z,9.00
2022-12-11T11:51:45.867Z,9.00
2022-12-11T11:54:33.652Z,9.00
2022-12-11T11:57:19.489Z,9.10
2022-12-11T12:00:01.349Z,9.10
2022-12-11T12:02:52.921Z,9.10
2022-12-11T12:05:37.818Z,9.30
2022-12-11T12:08:22.481Z,9.20
2022-12-11T12:11:13.444Z,9.10
2022-12-11T12:13:58.144Z,9.10
2022-12-11T12:16:53.130Z,9.30
2022-12-11T12:19:53.854Z,9.40
2022-12-11T12:22:46.113Z,9.40
2022-12-11T12:25:32.066Z,9.20
2022-12-11T12:28:20.100Z,9.40
2022-12-11T12:31:15.170Z,9.40
2022-12-11T12:34:00.036Z,9.50
2022-12-11T12:36:44.374Z,9.60
2022-12-11T12:39:29.122Z,9.60
2022-12-11T12:42:13.772Z,9.50
2022-12-11T12:45:00.611Z,9.60
2022-12-11T12:47:41.443Z,9.60
2022-12-11T12:50:24.914Z,9.50
2022-12-11T12:53:06.198Z,9.70
2022-12-11T12:55:44.767Z,9.80
2022-12-11T12:58:32.889Z,9.80
2022-12-11T13:01:19.643Z,9.80
2022-12-11T13:04:04.051Z,9.80
2022-12-11T13:06:43.196Z,9.70
2022-12-11T13:09:28.285Z,9.60
2022-12-11T13:12:08.473Z,9.60
2022-12-11T13:14:45.345Z,9.70
2022-12-11T13:17:44.503Z,9.80
2022-12-11T13:20:24.498Z,9.70
2022-12-11T13:23:21.208Z,9.80
2022-12-11T13:26:03.712Z,9.80
2022-12-11T13:28:53.889Z,9.70
2022-12-11T13:31:42.229Z,9.80
2022-12-11T13:34:51.693Z,9.80
2022-12-11T13:37:35.009Z,9.80
2022-12-11T13:40:14.517Z,9.80
2022-12-11T13:43:01.145Z,9.70
2022-12-11T13:45:44.507Z,9.80
2022-12-11T13:48:28.304Z,9.70
2022-12-11T13:51:05.559Z,9.70
2022-12-11T13:53:42.804Z,9.80
2022-12-11T13:56:25.855Z,9.80
2022-12-11T13:59:05.469Z,9.70
2022-12-11T14:01:45.150Z,9.60
2022-12-11T14:04:26.676Z,9.70
2022-12-11T14:07:04.520Z,9.60
2022-12-11T14:09:43.492Z,9.70
2022-12-11T14:12:25.857Z,9.50
2022-12-11T14:15:07.369Z,9.50
2022-12-11T14:17:51.402Z,9.40
2022-12-11T14:20:32.892Z,9.40
2022-12-11T14:23:26.467Z,9.40
2022-12-11T14:26:04.964Z,9.30
2022-12-11T14:28:47.648Z,9.20
2022-12-11T14:31:30.963Z,9.30
2022-12-11T14:34:12.366Z,9.20
2022-12-11T14:36:52.085Z,9.20
2022-12-11T14:39:34.320Z,9.20
2022-12-11T14:42:15.830Z,9.20
2022-12-11T14:44:56.457Z,9.30
2022-12-11T14:47:40.784Z,9.30
2022-12-11T14:50:27.060Z,9.20
2022-12-11T14:53:07.370Z,9.20
2022-12-11T14:55:47.019Z,9.10
2022-12-11T14:58:26.949Z,9.10
2022-12-11T15:01:09.478Z,9.10
2022-12-11T15:03:50.456Z,9.20
2022-12-11T15:06:36.287Z,9.40
2022-12-11T15:09:26.693Z,9.40
2022-12-11T15:12:07.331Z,9.50
2022-12-11T15:14:58.090Z,9.50
2022-12-11T15:17:36.318Z,9.50
2022-12-11T15:20:25.127Z,9.60
2022-12-11T15:23:04.978Z,9.60
2022-12-11T15:25:41.462Z,9.60
2022-12-11T15:28:34.302Z,9.50
2022-12-11T15:31:12.905Z,9.50
2022-12-11T15:33:54.576Z,9.40
2022-12-11T15:36:39.050Z,9.50
2022-12-11T15:39:16.830Z,9.60
2022-12-11T15:41:54.932Z,9.60
2022-12-11T15:44:33.108Z,9.70
2022-12-11T15:47:19.338Z,9.70
2022-12-11T15:49:55.951Z,9.70
2022-12-11T15:52:36.287Z,9.70
2022-12-11T15:55:14.772Z,9.80
2022-12-11T15:57:54.605Z,9.80
2022-12-11T16:00:32.321Z,9.80
2022-12-11T16:03:12.492Z,9.80
2022-12-11T16:05:53.669Z,9.80
2022-12-11T16:08:32.901Z,9.80
2022-12-11T16:11:10.265Z,9.90
2022-12-11T16:13:48.460Z,9.80
2022-12-11T16:16:25.859Z,9.80
2022-12-11T16:19:03.288Z,9.80
2022-12-11T16:21:41.652Z,9.80
2022-12-11T16:24:22.358Z,9.90
2022-12-11T16:27:00.137Z,9.90
2022-12-11T16:29:39.283Z,9.90
2022-12-11T16:32:16.035Z,10.00
2022-12-11T16:34:51.740Z,10.00
2022-12-11T16:37:28.036Z,9.90
2022-12-11T16:40:08.057Z,9.90
2022-12-11T16:42:45.806Z,10.00
2022-12-11T16:45:22.487Z,10.00
2022-12-11T16:47:59.044Z,10.00
2022-12-11T16:50:34.993Z,10.00
2022-12-11T16:53:12.132Z,10.00
2022-12-11T16:55:50.379Z,10.10
2022-12-11T16:58:25.562Z,10.10
2022-12-11T17:01:04.003Z,10.00
2022-12-11T17:03:38.812Z,10.20
2022-12-11T17:06:14.509Z,10.00
2022-12-11T17:08:49.312Z,9.90
2022-12-11T17:11:28.156Z,9.90
2022-12-11T17:14:05.411Z,9.90
2022-12-11T17:16:39.856Z,10.00
2022-12-11T17:19:14.770Z,10.00
2022-12-11T17:21:51.731Z,10.00
2022-12-11T17:24:26.339Z,10.00
2022-12-11T17:27:03.987Z,10.00
2022-12-11T17:29:38.278Z,10.00
2022-12-11T17:32:12.697Z,9.90
2022-12-11T17:34:46.700Z,10.00
2022-12-11T17:37:21.592Z,10.00
2022-12-11T17:39:57.253Z,9.90
2022-12-11T17:42:34.123Z,10.00
2022-12-11T17:45:09.258Z,10.00
2022-12-11T17:47:44.210Z,10.00
2022-12-11T17:50:18.679Z,10.00
2022-12-11T17:52:53.167Z,10.00
2022-12-11T17:55:27.678Z,10.10
2022-12-11T17:58:04.377Z,10.00
2022-12-11T18:00:39.489Z,10.00
2022-12-11T18:03:14.191Z,10.10
2022-12-11T18:05:50.411Z,10.00
2022-12-11T18:08:27.403Z,10.00
2022-12-11T18:11:01.984Z,10.10
2022-12-11T18:13:37.816Z,10.20
2022-12-11T18:16:14.919Z,10.10
2022-12-11T18:18:49.805Z,10.10
2022-12-11T18:21:26.587Z,10.20
2022-12-11T18:24:01.615Z,10.10
2022-12-11T18:26:36.108Z,10.10
2022-12-11T18:29:12.694Z,10.20
2022-12-11T18:31:47.193Z,10.10
2022-12-11T18:34:21.474Z,10.20
2022-12-11T18:36:55.563Z,10.10
2022-12-11T18:39:29.889Z,10.20
2022-12-11T18:42:31.815Z,10.10
2022-12-11T18:45:00.700Z,10.10
2022-12-11T18:47:36.404Z,9.80
2022-12-11T18:50:11.446Z,10.00
2022-12-11T18:52:45.839Z,9.90
2022-12-11T18:55:21.072Z,10.00
2022-12-11T18:57:55.427Z,9.90
2022-12-11T19:00:31.391Z,9.80
2022-12-11T19:03:06.832Z,9.80
2022-12-11T19:05:44.179Z,9.80
2022-12-11T19:08:19.016Z,9.80
2022-12-11T19:10:53.432Z,9.80
2022-12-11T19:13:27.713Z,9.80
2022-12-11T19:16:04.337Z,9.80
2022-12-11T19:18:39.386Z,9.80
2022-12-11T19:21:15.952Z,9.70
2022-12-11T19:23:50.922Z,9.80
2022-12-11T19:26:26.617Z,9.80
2022-12-11T19:29:01.958Z,9.70
2022-12-11T19:31:38.581Z,9.70
2022-12-11T19:34:13.701Z,9.70
2022-12-11T19:36:47.896Z,9.80
2022-12-11T19:39:22.472Z,9.70
2022-12-11T19:41:56.574Z,9.60
2022-12-11T19:44:30.485Z,9.70
2022-12-11T19:47:08.377Z,9.60
2022-12-11T19:49:42.626Z,9.60
2022-12-11T19:52:17.122Z,9.60
2022-12-11T19:54:51.517Z,9.50
2022-12-11T19:57:25.920Z,9.60
2022-12-11T20:00:00.418Z,9.40
2022-12-11T20:02:36.856Z,9.60
2022-12-11T20:05:11.559Z,9.70
2022-12-11T20:07:46.782Z,9.70
2022-12-11T20:10:20.784Z,9.70
2022-12-11T20:12:58.235Z,9.70
2022-12-11T20:15:33.358Z,9.70
2022-12-11T20:18:12.815Z,9.70
2022-12-11T20:20:51.679Z,9.70
2022-12-11T20:23:26.068Z,9.70
2022-12-11T20:26:00.355Z,9.70
2022-12-11T20:28:34.483Z,9.70
2022-12-11T20:31:16.561Z,9.70
2022-12-11T20:33:57.164Z,9.70
2022-12-11T20:36:31.848Z,9.70
2022-12-11T20:39:06.559Z,9.70
2022-12-11T20:41:41.344Z,9.60
2022-12-11T20:44:15.686Z,9.60
2022-12-11T20:46:49.849Z,9.70
2022-12-11T20:49:27.000Z,9.50
2022-12-11T20:52:03.170Z,9.60
2022-12-11T20:54:38.040Z,9.40
2022-12-11T20:57:13.176Z,9.40
2022-12-11T20:59:47.963Z,9.30
2022-12-11T21:02:22.371Z,9.30
2022-12-11T21:04:58.855Z,9.40
2022-12-11T21:07:33.535Z,9.30
2022-12-11T21:10:07.975Z,9.40
2022-12-11T21:12:42.543Z,9.20
2022-12-11T21:15:16.978Z,9.20
2022-12-11T21:17:50.944Z,9.40
2022-12-11T21:20:26.783Z,9.50
2022-12-11T21:23:02.991Z,9.40
2022-12-11T21:25:36.945Z,9.40
2022-12-11T21:28:11.102Z,9.20
2022-12-11T21:30:45.508Z,9.40
2022-12-11T21:33:20.614Z,9.40
2022-12-11T21:36:02.792Z,9.30
2022-12-11T21:38:36.979Z,9.30
2022-12-11T21:41:15.102Z,9.30
2022-12-11T21:46:44.174Z,9.10
2022-12-11T21:49:19.284Z,9.20
2022-12-11T21:51:55.645Z,9.20
2022-12-11T21:54:30.424Z,9.30
2022-12-11T21:57:04.708Z,9.20
2022-12-11T21:59:39.479Z,9.10
2022-12-11T22:02:15.775Z,9.10
2022-12-11T22:04:51.353Z,9.10
2022-12-11T22:07:27.426Z,9.00
2022-12-11T22:10:01.590Z,9.10
2022-12-11T22:12:35.561Z,9.10
2022-12-11T22:15:10.690Z,9.20
2022-12-11T22:17:45.146Z,9.00
2022-12-11T22:20:19.711Z,9.20
2022-12-11T22:22:56.242Z,9.20
2022-12-11T22:25:30.643Z,9.20
2022-12-11T22:28:04.862Z,9.10
2022-12-11T22:30:39.478Z,9.10
2022-12-11T22:33:14.546Z,9.10
2022-12-11T22:35:49.280Z,9.10
2022-12-11T22:38:25.185Z,9.10
2022-12-11T22:41:00.108Z,9.00
2022-12-11T22:43:34.412Z,9.00
2022-12-11T22:46:08.695Z,9.00
2022-12-11T22:48:42.898Z,9.00
2022-12-11T22:51:17.123Z,9.00
2022-12-11T22:53:53.241Z,9.00
2022-12-11T22:56:27.775Z,9.00
2022-12-11T22:59:04.120Z,8.90
2022-12-11T23:01:38.354Z,8.90
2022-12-11T23:04:12.360Z,9.00
2022-12-11T23:06:47.299Z,9.00
2022-12-11T23:09:24.040Z,8.80
2022-12-11T23:12:00.017Z,8.80
2022-12-11T23:14:34.777Z,8.80
2022-12-11T23:17:08.992Z,8.80
2022-12-11T23:19:42.995Z,8.70
2022-12-11T23:22:17.355Z,8.70
2022-12-11T23:24:53.717Z,8.60
2022-12-11T23:27:28.308Z,8.70
2022-12-11T23:30:03.700Z,8.70
2022-12-11T23:32:38.190Z,8.80
2022-12-11T23:35:13.171Z,8.70
2022-12-11T23:37:48.298Z,8.50
2022-12-11T23:40:24.919Z,8.60
2022-12-11T23:42:59.287Z,8.70
2022-12-11T23:45:34.493Z,8.60
2022-12-11T23:48:08.741Z,8.60
2022-12-11T23:51:02.936Z,8.60
2022-12-11T23:53:39.178Z,8.40
2022-12-11T23:56:36.756Z,8.50
2022-12-11T23:59:49.791Z,8.70
